createdAt,value
2022-10-20T00:00:28.822Z,98925.00
2022-10-20T00:02:33.858Z,98925.78
2022-10-20T00:04:41.957Z,98915.38
2022-10-20T00:06:46.754Z,98913.63
2022-10-20T00:08:51.670Z,98902.44
2022-10-20T00:10:57.296Z,98899.88
2022-10-20T00:13:02.112Z,98897.25
2022-10-20T00:15:07.757Z,98895.44
2022-10-20T00:17:12.643Z,98890.22
2022-10-20T00:19:17.455Z,98890.16
2022-10-20T00:21:27.234Z,98891.78
2022-10-20T00:23:31.956Z,98873.63
2022-10-20T00:25:36.743Z,98878.91
2022-10-20T00:27:41.620Z,98883.22
2022-10-20T00:29:46.367Z,98887.63
2022-10-20T00:31:51.129Z,98885.84
2022-10-20T00:33:56.521Z,98890.22
2022-10-20T00:36:01.872Z,98888.44
2022-10-20T00:38:08.999Z,98885.00
2022-10-20T00:40:14.551Z,98888.53
2022-10-20T00:42:20.348Z,98882.31
2022-10-20T00:44:53.764Z,98877.03
2022-10-20T00:47:00.234Z,98880.66
2022-10-20T00:49:09.807Z,98886.72
2022-10-20T00:51:16.935Z,98883.16
2022-10-20T00:53:27.090Z,98879.53
2022-10-20T00:55:34.991Z,98888.09
2022-10-20T00:57:40.214Z,98878.56
2022-10-20T00:59:44.713Z,98871.66
2022-10-20T01:01:49.778Z,98878.63
2022-10-20T01:03:55.424Z,98873.41
2022-10-20T01:06:00.621Z,98871.63
2022-10-20T01:08:05.529Z,98868.16
2022-10-20T01:10:14.053Z,98868.09
2022-10-20T01:12:29.427Z,98862.00
2022-10-20T01:14:44.434Z,98854.19
2022-10-20T01:17:01.093Z,98852.50
2022-10-20T01:19:18.567Z,98850.69
2022-10-20T01:21:48.215Z,98853.38
2022-10-20T01:24:33.475Z,98849.97
2022-10-20T01:27:04.681Z,98851.78
2022-10-20T01:29:19.031Z,98850.94
2022-10-20T01:31:32.423Z,98849.44
2022-10-20T01:33:44.205Z,98845.97
2022-10-20T01:35:57.337Z,98843.44
2022-10-20T01:38:10.703Z,98846.19
2022-10-20T01:40:24.848Z,98843.63
2022-10-20T01:42:31.512Z,98843.72
2022-10-20T01:44:40.327Z,98842.88
2022-10-20T01:46:47.335Z,98841.22
2022-10-20T01:48:52.825Z,98838.66
2022-10-20T01:50:58.045Z,98848.25
2022-10-20T01:53:03.258Z,98848.34
2022-10-20T01:55:15.480Z,98850.97
2022-10-20T01:57:36.650Z,98844.09
2022-10-20T01:59:57.275Z,98834.53
2022-10-20T02:02:21.857Z,98824.31
2022-10-20T02:04:35.347Z,98824.41
2022-10-20T02:06:45.749Z,98814.94
2022-10-20T02:08:54.310Z,98811.50
2022-10-20T02:11:03.152Z,98814.19
2022-10-20T02:13:09.906Z,98807.41
2022-10-20T02:15:21.487Z,98809.19
2022-10-20T02:17:28.857Z,98808.31
2022-10-20T02:19:39.275Z,98812.56
2022-10-20T02:21:44.106Z,98806.47
2022-10-20T02:23:52.359Z,98803.06
2022-10-20T02:25:58.914Z,98800.59
2022-10-20T02:28:08.692Z,98795.53
2022-10-20T02:30:19.740Z,98793.03
2022-10-20T02:32:27.083Z,98787.06
2022-10-20T02:34:32.083Z,98792.31
2022-10-20T02:36:41.326Z,98789.75
2022-10-20T02:38:46.217Z,98801.97
2022-10-20T02:40:51.016Z,98786.41
2022-10-20T02:42:56.075Z,98787.31
2022-10-20T02:45:00.843Z,98788.31
2022-10-20T02:47:08.214Z,98783.03
2022-10-20T02:49:12.951Z,98785.63
2022-10-20T02:51:17.851Z,98787.44
2022-10-20T02:53:22.581Z,98786.66
2022-10-20T02:55:27.339Z,98785.16
2022-10-20T02:57:32.706Z,98790.44
2022-10-20T02:59:37.788Z,98786.25
2022-10-20T03:01:42.609Z,98789.63
2022-10-20T03:03:50.129Z,98789.69
2022-10-20T03:05:54.982Z,98785.47
2022-10-20T03:07:59.913Z,98789.00
2022-10-20T03:10:04.770Z,98790.00
2022-10-20T03:12:09.646Z,98786.59
2022-10-20T03:14:14.579Z,98784.00
2022-10-20T03:16:19.350Z,98795.28
2022-10-20T03:18:28.325Z,98795.28
2022-10-20T03:20:36.064Z,98789.19
2022-10-20T03:22:40.793Z,98793.53
2022-10-20T03:24:45.570Z,98796.13
2022-10-20T03:26:50.293Z,98799.63
2022-10-20T03:28:55.199Z,98788.41
2022-10-20T03:31:00.243Z,98793.69
2022-10-20T03:33:05.054Z,98795.50
2022-10-20T03:35:10.942Z,98793.06
2022-10-20T03:37:18.315Z,98793.00
2022-10-20T03:39:23.205Z,98794.72
2022-10-20T03:41:28.402Z,98786.00
2022-10-20T03:43:32.875Z,98787.88
2022-10-20T03:45:37.653Z,98785.22
2022-10-20T03:47:42.535Z,98786.88
2022-10-20T03:49:47.327Z,98787.78
2022-10-20T03:51:52.057Z,98778.31
2022-10-20T03:53:59.538Z,98782.53
2022-10-20T03:56:08.512Z,98784.34
2022-10-20T03:58:13.335Z,98779.94
2022-10-20T04:00:18.298Z,98773.06
2022-10-20T04:02:36.336Z,98773.91
2022-10-20T04:04:41.242Z,98774.03
2022-10-20T04:06:46.095Z,98773.38
2022-10-20T04:08:51.135Z,98778.50
2022-10-20T04:10:58.502Z,98777.66
2022-10-20T04:13:03.926Z,98782.84
2022-10-20T04:15:09.421Z,98777.66
2022-10-20T04:17:14.137Z,98779.31
2022-10-20T04:19:18.998Z,98771.47
2022-10-20T04:21:23.817Z,98768.03
2022-10-20T04:23:29.840Z,98772.41
2022-10-20T04:25:34.577Z,98771.53
2022-10-20T04:27:42.136Z,98774.91
2022-10-20T04:29:46.882Z,98774.91
2022-10-20T04:31:51.795Z,98770.56
2022-10-20T04:33:56.589Z,98771.53
2022-10-20T04:36:02.193Z,98773.22
2022-10-20T04:38:07.251Z,98773.22
2022-10-20T04:40:15.034Z,98772.31
2022-10-20T04:42:19.814Z,98770.56
2022-10-20T04:44:27.212Z,98774.00
2022-10-20T04:46:31.974Z,98764.47
2022-10-20T04:48:37.102Z,98762.78
2022-10-20T04:50:41.897Z,98753.38
2022-10-20T04:52:46.663Z,98750.88
2022-10-20T04:54:52.379Z,98742.56
2022-10-20T04:56:57.166Z,98739.16
2022-10-20T04:59:03.207Z,98733.25
2022-10-20T05:01:13.165Z,98734.06
2022-10-20T05:03:19.021Z,98733.25
2022-10-20T05:05:23.763Z,98732.38
2022-10-20T05:07:32.405Z,98728.06
2022-10-20T05:09:37.584Z,98725.44
2022-10-20T05:11:42.339Z,98727.19
2022-10-20T05:13:47.246Z,98722.09
2022-10-20T05:15:54.975Z,98729.06
2022-10-20T05:18:02.358Z,98730.00
2022-10-20T05:20:08.485Z,98729.06
2022-10-20T05:22:13.359Z,98724.59
2022-10-20T05:24:22.000Z,98727.94
2022-10-20T05:26:29.807Z,98730.38
2022-10-20T05:28:34.837Z,98720.00
2022-10-20T05:30:39.912Z,98727.69
2022-10-20T05:32:44.640Z,98725.84
2022-10-20T05:34:51.973Z,98721.44
2022-10-20T05:36:56.745Z,98720.44
2022-10-20T05:39:01.574Z,98726.53
2022-10-20T05:41:10.926Z,98726.47
2022-10-20T05:43:17.186Z,98726.44
2022-10-20T05:45:22.234Z,98719.53
2022-10-20T05:47:27.045Z,98722.97
2022-10-20T05:49:31.882Z,98712.75
2022-10-20T05:51:39.640Z,98717.22
2022-10-20T05:53:44.484Z,98716.41
2022-10-20T05:55:49.214Z,98717.22
2022-10-20T05:57:54.665Z,98712.97
2022-10-20T05:59:59.707Z,98707.72
2022-10-20T06:02:04.396Z,98709.53
2022-10-20T06:04:10.725Z,98708.63
2022-10-20T06:06:15.492Z,98700.00
2022-10-20T06:08:22.861Z,98694.81
2022-10-20T06:10:28.162Z,98693.06
2022-10-20T06:12:33.441Z,98698.94
2022-10-20T06:14:38.576Z,98705.72
2022-10-20T06:16:43.619Z,98707.31
2022-10-20T06:18:48.645Z,98706.38
2022-10-20T06:21:02.148Z,98702.78
2022-10-20T06:23:06.882Z,98707.06
2022-10-20T06:25:14.452Z,98699.34
2022-10-20T06:27:19.182Z,98700.97
2022-10-20T06:29:23.943Z,98702.47
2022-10-20T06:31:30.819Z,98704.13
2022-10-20T06:33:35.570Z,98698.88
2022-10-20T06:35:40.439Z,98690.31
2022-10-20T06:37:45.205Z,98690.31
2022-10-20T06:39:49.913Z,98691.00
2022-10-20T06:41:57.837Z,98689.97
2022-10-20T06:44:09.460Z,98698.50
2022-10-20T06:46:16.886Z,98695.78
2022-10-20T06:48:21.670Z,98696.44
2022-10-20T06:50:28.850Z,98701.34
2022-10-20T06:52:33.817Z,98707.09
2022-10-20T06:54:38.561Z,98695.72
2022-10-20T06:56:43.486Z,98685.13
2022-10-20T06:58:53.323Z,98683.25
2022-10-20T07:01:04.425Z,98688.38
2022-10-20T07:03:11.760Z,98675.31
2022-10-20T07:05:16.662Z,98690.81
2022-10-20T07:07:21.391Z,98688.00
2022-10-20T07:09:26.136Z,98701.72
2022-10-20T07:11:32.750Z,98693.06
2022-10-20T07:13:39.906Z,98688.50
2022-10-20T07:15:49.222Z,98688.38
2022-10-20T07:17:53.897Z,98683.88
2022-10-20T07:19:58.603Z,98679.44
2022-10-20T07:22:03.515Z,98680.13
2022-10-20T07:24:10.029Z,98673.94
2022-10-20T07:26:16.982Z,98672.91
2022-10-20T07:28:22.253Z,98673.69
2022-10-20T07:30:26.965Z,98677.00
2022-10-20T07:32:35.073Z,98676.03
2022-10-20T07:34:40.099Z,98682.84
2022-10-20T07:36:46.949Z,98683.53
2022-10-20T07:38:51.766Z,98673.78
2022-10-20T07:40:58.342Z,98675.44
2022-10-20T07:43:05.400Z,98669.16
2022-10-20T07:45:11.470Z,98667.28
2022-10-20T07:47:16.303Z,98656.03
2022-10-20T07:49:44.033Z,98648.97
2022-10-20T07:51:48.321Z,98658.41
2022-10-20T07:53:58.186Z,98656.44
2022-10-20T07:56:04.644Z,98655.25
2022-10-20T07:58:09.707Z,98649.63
2022-10-20T08:00:15.860Z,98647.41
2022-10-20T08:02:20.857Z,98646.19
2022-10-20T08:04:31.852Z,98639.00
2022-10-20T08:06:39.183Z,98638.72
2022-10-20T08:08:44.358Z,98626.25
2022-10-20T08:10:49.105Z,98624.38
2022-10-20T08:12:53.934Z,98626.63
2022-10-20T08:14:58.754Z,98616.94
2022-10-20T08:22:03.837Z,98602.28
2022-10-20T08:24:09.035Z,98603.72
2022-10-20T08:26:14.005Z,98598.50
2022-10-20T08:28:21.134Z,98586.38
2022-10-20T08:30:28.379Z,98573.81
2022-10-20T08:32:33.240Z,98580.28
2022-10-20T08:34:45.186Z,98579.72
2022-10-20T08:36:50.161Z,98584.75
2022-10-20T08:38:54.893Z,98585.38
2022-10-20T08:41:03.175Z,98591.53
2022-10-20T08:43:07.935Z,98590.22
2022-10-20T08:45:18.567Z,98588.06
2022-10-20T08:47:32.491Z,98586.63
2022-10-20T08:49:38.726Z,98585.38
2022-10-20T08:51:49.198Z,98577.97
2022-10-20T08:53:56.544Z,98575.88
2022-10-20T08:56:01.393Z,98569.47
2022-10-20T08:58:08.798Z,98564.81
2022-10-20T09:00:21.470Z,98559.09
2022-10-20T09:02:33.860Z,98556.97
2022-10-20T09:04:45.929Z,98548.13
2022-10-20T09:07:00.696Z,98548.28
2022-10-20T09:09:06.246Z,98544.47
2022-10-20T09:11:16.729Z,98532.06
2022-10-20T09:13:26.711Z,98524.91
2022-10-20T09:15:33.625Z,98526.38
2022-10-20T09:17:39.496Z,98522.63
2022-10-20T09:19:49.438Z,98520.72
2022-10-20T09:22:00.936Z,98529.03
2022-10-20T09:24:08.223Z,98519.06
2022-10-20T09:26:30.580Z,98519.25
2022-10-20T09:28:56.186Z,98520.94
2022-10-20T09:31:34.300Z,98526.41
2022-10-20T09:33:39.220Z,98520.03
2022-10-20T09:35:46.012Z,98516.47
2022-10-20T09:37:58.388Z,98516.47
2022-10-20T09:40:03.781Z,98510.34
2022-10-20T09:42:16.506Z,98515.56
2022-10-20T09:44:25.872Z,98512.81
2022-10-20T09:46:35.033Z,98510.50
2022-10-20T09:48:42.898Z,98499.03
2022-10-20T09:50:55.225Z,98498.09
2022-10-20T09:53:05.193Z,98493.31
2022-10-20T09:55:22.419Z,98495.34
2022-10-20T09:57:27.321Z,98497.50
2022-10-20T09:59:36.779Z,98492.03
2022-10-20T10:01:55.918Z,98497.03
2022-10-20T10:04:05.812Z,98500.31
2022-10-20T10:06:32.058Z,98493.25
2022-10-20T10:08:48.584Z,98485.22
2022-10-20T10:11:08.337Z,98491.28
2022-10-20T10:13:25.823Z,98488.34
2022-10-20T10:15:34.070Z,98488.34
2022-10-20T10:17:41.269Z,98484.78
2022-10-20T10:19:54.046Z,98479.47
2022-10-20T10:22:03.169Z,98476.47
2022-10-20T10:24:39.219Z,98476.13
2022-10-20T10:26:48.928Z,98475.72
2022-10-20T10:29:01.148Z,98470.41
2022-10-20T10:31:22.177Z,98473.63
2022-10-20T10:33:30.364Z,98470.06
2022-10-20T10:35:39.942Z,98462.22
2022-10-20T10:37:48.952Z,98461.09
2022-10-20T10:39:56.367Z,98461.38
2022-10-20T10:42:26.214Z,98456.78
2022-10-20T10:44:46.777Z,98452.66
2022-10-20T10:47:00.995Z,98450.63
2022-10-20T10:49:35.494Z,98449.00
2022-10-20T10:51:53.077Z,98442.13
2022-10-20T10:54:12.170Z,98428.50
2022-10-20T10:56:32.406Z,98421.91
2022-10-20T10:58:48.022Z,98422.63
2022-10-20T11:01:06.138Z,98423.88
2022-10-20T11:03:41.073Z,98425.69
2022-10-20T11:05:59.724Z,98432.00
2022-10-20T11:08:14.863Z,98439.50
2022-10-20T11:10:29.506Z,98446.34
2022-10-20T11:13:01.177Z,98451.00
2022-10-20T11:15:24.702Z,98448.94
2022-10-20T11:17:48.412Z,98455.94
2022-10-20T11:20:06.664Z,98446.41
2022-10-20T11:22:23.860Z,98444.94
2022-10-20T11:24:52.002Z,98443.34
2022-10-20T11:27:04.511Z,98431.31
2022-10-20T11:29:19.119Z,98416.97
2022-10-20T11:31:30.904Z,98413.88
2022-10-20T11:33:44.908Z,98412.09
2022-10-20T11:35:55.810Z,98404.84
2022-10-20T11:38:16.641Z,98400.63
2022-10-20T11:40:31.699Z,98398.19
2022-10-20T11:42:44.521Z,98393.50
2022-10-20T11:44:54.345Z,98393.75
2022-10-20T11:47:03.104Z,98395.06
2022-10-20T11:49:12.294Z,98398.78
2022-10-20T11:51:42.166Z,98389.13
2022-10-20T11:54:02.957Z,98379.28
2022-10-20T11:56:35.784Z,98380.25
2022-10-20T11:59:12.981Z,98388.22
2022-10-20T12:01:34.858Z,98384.88
2022-10-20T12:04:06.291Z,98379.78
2022-10-20T12:06:30.061Z,98369.53
2022-10-20T12:08:51.818Z,98367.66
2022-10-20T12:11:07.736Z,98357.69
2022-10-20T12:13:29.333Z,98380.28
2022-10-20T12:15:34.496Z,98387.97
2022-10-20T12:17:45.422Z,98376.41
2022-10-20T12:19:54.972Z,98375.06
2022-10-20T12:22:04.617Z,98370.09
2022-10-20T12:24:33.820Z,98358.81
2022-10-20T12:27:07.585Z,98350.31
2022-10-20T12:29:51.121Z,98351.47
2022-10-20T12:32:28.816Z,98356.41
2022-10-20T12:34:42.562Z,98356.41
2022-10-20T12:36:47.402Z,98360.19
2022-10-20T12:38:54.770Z,98369.66
2022-10-20T12:41:02.750Z,98355.56
2022-10-20T12:43:07.709Z,98341.66
2022-10-20T12:45:29.777Z,98345.53
2022-10-20T12:47:37.421Z,98337.66
2022-10-20T12:49:56.286Z,98335.84
2022-10-20T12:52:03.893Z,98334.94
2022-10-20T12:54:20.801Z,98330.09
2022-10-20T12:56:29.122Z,98336.94
2022-10-20T12:58:35.695Z,98342.63
2022-10-20T13:01:06.378Z,98350.09
2022-10-20T13:03:40.045Z,98355.16
2022-10-20T13:05:51.599Z,98354.09
2022-10-20T13:08:04.699Z,98346.66
2022-10-20T13:10:31.754Z,98343.63
2022-10-20T13:12:42.725Z,98340.56
2022-10-20T13:14:58.810Z,98334.66
2022-10-20T13:17:14.487Z,98318.75
2022-10-20T13:19:28.038Z,98318.34
2022-10-20T13:21:37.658Z,98317.41
2022-10-20T13:23:45.189Z,98320.66
2022-10-20T13:25:53.483Z,98321.41
2022-10-20T13:28:07.191Z,98324.78
2022-10-20T13:30:13.663Z,98331.41
2022-10-20T13:32:25.772Z,98333.28
2022-10-20T13:34:36.463Z,98332.66
2022-10-20T13:37:09.837Z,98335.84
2022-10-20T13:39:20.991Z,98340.97
2022-10-20T13:41:35.174Z,98329.81
2022-10-20T13:43:56.631Z,98323.94
2022-10-20T13:46:32.680Z,98318.66
2022-10-20T13:48:50.893Z,98311.00
2022-10-20T13:51:01.435Z,98313.50
2022-10-20T13:53:16.322Z,98308.66
2022-10-20T13:55:27.517Z,98310.34
2022-10-20T13:57:35.628Z,98317.19
2022-10-20T13:59:41.911Z,98311.72
2022-10-20T14:01:51.797Z,98311.09
2022-10-20T14:03:56.944Z,98313.19
2022-10-20T14:06:01.833Z,98328.75
2022-10-20T14:08:11.855Z,98331.19
2022-10-20T14:10:45.690Z,98332.03
2022-10-20T14:12:50.725Z,98340.75
2022-10-20T14:15:01.919Z,98331.41
2022-10-20T14:17:09.315Z,98339.06
2022-10-20T14:19:15.503Z,98328.84
2022-10-20T14:21:21.897Z,98328.22
2022-10-20T14:23:31.090Z,98329.81
2022-10-20T14:25:36.408Z,98325.38
2022-10-20T14:27:41.304Z,98320.25
2022-10-20T14:29:47.129Z,98322.63
2022-10-20T14:31:52.320Z,98325.81
2022-10-20T14:33:56.865Z,98325.06
2022-10-20T14:36:04.707Z,98337.28
2022-10-20T14:38:18.041Z,98328.22
2022-10-20T14:40:27.144Z,98338.94
2022-10-20T14:42:35.066Z,98332.44
2022-10-20T14:44:39.912Z,98331.78
2022-10-20T14:46:49.504Z,98328.31
2022-10-20T14:48:54.405Z,98324.28
2022-10-20T14:50:59.185Z,98325.66
2022-10-20T14:53:20.220Z,98314.41
2022-10-20T14:55:38.446Z,98309.97
2022-10-20T14:57:47.298Z,98311.19
2022-10-20T15:00:02.592Z,98312.97
2022-10-20T15:02:12.917Z,98313.81
2022-10-20T15:04:19.480Z,98325.38
2022-10-20T15:06:26.842Z,98329.91
2022-10-20T15:08:31.921Z,98353.47
2022-10-20T15:10:39.097Z,98367.75
2022-10-20T15:12:48.988Z,98354.50
2022-10-20T15:14:55.919Z,98357.44
2022-10-20T15:17:00.766Z,98352.38
2022-10-20T15:19:16.194Z,98341.88
2022-10-20T15:21:20.904Z,98337.53
2022-10-20T15:23:27.029Z,98323.69
2022-10-20T15:25:34.631Z,98309.78
2022-10-20T15:27:43.713Z,98290.44
2022-10-20T15:29:51.884Z,98282.03
2022-10-20T15:31:56.931Z,98267.06
2022-10-20T15:34:01.694Z,98248.16
2022-10-20T15:36:13.368Z,98246.31
2022-10-20T15:38:18.300Z,98239.03
2022-10-20T15:40:24.342Z,98229.97
2022-10-20T15:42:32.128Z,98233.75
2022-10-20T15:44:39.537Z,98246.22
2022-10-20T15:46:44.945Z,98252.50
2022-10-20T15:48:49.735Z,98247.91
2022-10-20T15:50:54.796Z,98255.03
2022-10-20T15:52:59.601Z,98255.88
2022-10-20T15:55:04.463Z,98264.69
2022-10-20T15:57:09.210Z,98277.75
2022-10-20T15:59:14.146Z,98277.63
2022-10-20T16:01:22.800Z,98279.22
2022-10-20T16:03:27.591Z,98275.00
2022-10-20T16:05:32.601Z,98281.75
2022-10-20T16:07:37.622Z,98269.16
2022-10-20T16:09:42.393Z,98270.19
2022-10-20T16:11:47.629Z,98266.84
2022-10-20T16:13:52.272Z,98255.41
2022-10-20T16:15:57.160Z,98252.91
2022-10-20T16:18:07.229Z,98250.09
2022-10-20T16:20:14.546Z,98254.97
2022-10-20T16:22:19.374Z,98255.94
2022-10-20T16:24:24.185Z,98244.28
2022-10-20T16:26:29.585Z,98237.44
2022-10-20T16:28:34.442Z,98231.16
2022-10-20T16:30:39.615Z,98229.38
2022-10-20T16:32:44.130Z,98242.88
2022-10-20T16:34:51.470Z,98231.94
2022-10-20T16:36:58.490Z,98224.06
2022-10-20T16:39:03.310Z,98229.53
2022-10-20T16:41:10.437Z,98235.59
2022-10-20T16:43:17.906Z,98228.47
2022-10-20T16:47:28.689Z,98229.97
2022-10-20T16:49:33.440Z,98232.03
2022-10-20T16:51:40.764Z,98225.19
2022-10-20T16:53:46.139Z,98226.91
2022-10-20T16:55:55.479Z,98232.97
2022-10-20T16:58:00.261Z,98238.31
2022-10-20T17:00:05.310Z,98235.50
2022-10-20T17:02:10.124Z,98228.09
2022-10-20T17:04:15.463Z,98233.34
2022-10-20T17:06:23.454Z,98233.34
2022-10-20T17:08:32.027Z,98238.59
2022-10-20T17:10:36.997Z,98238.78
2022-10-20T17:12:41.826Z,98242.44
2022-10-20T17:14:46.568Z,98249.34
2022-10-20T17:16:51.528Z,98251.16
2022-10-20T17:18:56.878Z,98245.06
2022-10-20T17:21:01.694Z,98258.94
2022-10-20T17:23:06.550Z,98271.94
2022-10-20T17:25:14.117Z,98274.69
2022-10-20T17:27:18.830Z,98268.56
2022-10-20T17:29:25.951Z,98282.44
2022-10-20T17:31:32.035Z,98284.13
2022-10-20T17:33:36.946Z,98278.88
2022-10-20T17:35:42.041Z,98283.19
2022-10-20T17:37:46.801Z,98284.81
2022-10-20T17:39:51.513Z,98287.69
2022-10-20T17:41:58.987Z,98278.97
2022-10-20T17:44:04.629Z,98281.59
2022-10-20T17:46:11.746Z,98276.34
2022-10-20T17:48:16.693Z,98281.03
2022-10-20T17:50:21.484Z,98289.94
2022-10-20T17:52:26.507Z,98283.22
2022-10-20T17:54:31.324Z,98283.09
2022-10-20T17:56:40.069Z,98280.59
2022-10-20T17:58:49.156Z,98281.34
2022-10-20T18:00:56.580Z,98278.72
2022-10-20T18:03:01.897Z,98284.88
2022-10-20T18:05:07.228Z,98287.50
2022-10-20T18:07:12.104Z,98280.47
2022-10-20T18:09:19.107Z,98286.75
2022-10-20T18:11:25.816Z,98291.28
2022-10-20T18:13:30.787Z,98290.63
2022-10-20T18:15:44.689Z,98279.75
2022-10-20T18:17:49.389Z,98272.91
2022-10-20T18:19:57.592Z,98275.53
2022-10-20T18:22:02.321Z,98279.06
2022-10-20T18:24:09.237Z,98285.56
2022-10-20T18:26:16.322Z,98283.13
2022-10-20T18:28:21.090Z,98271.88
2022-10-20T18:30:25.852Z,98258.00
2022-10-20T18:32:33.303Z,98254.44
2022-10-20T18:34:38.709Z,98253.59
2022-10-20T18:36:46.136Z,98247.13
2022-10-20T18:38:51.530Z,98243.69
2022-10-20T18:40:56.321Z,98255.94
2022-10-20T18:43:01.141Z,98264.66
2022-10-20T18:45:06.761Z,98265.97
2022-10-20T18:47:11.687Z,98263.16
2022-10-20T18:49:21.633Z,98262.97
2022-10-20T18:51:26.660Z,98257.53
2022-10-20T18:53:31.638Z,98264.66
2022-10-20T18:55:36.436Z,98265.59
2022-10-20T18:57:41.581Z,98259.53
2022-10-20T18:59:46.342Z,98255.00
2022-10-20T19:01:51.166Z,98252.19
2022-10-20T19:03:57.787Z,98243.50
2022-10-20T19:06:08.575Z,98244.91
2022-10-20T19:08:13.343Z,98251.75
2022-10-20T19:10:18.942Z,98257.81
2022-10-20T19:12:23.753Z,98257.75
2022-10-20T19:14:29.358Z,98250.78
2022-10-20T19:16:36.564Z,98253.41
2022-10-20T19:18:42.261Z,98263.06
2022-10-20T19:20:47.015Z,98257.94
2022-10-20T19:22:54.409Z,98261.19
2022-10-20T19:24:59.141Z,98255.00
2022-10-20T19:29:28.902Z,98272.72
2022-10-20T19:31:36.385Z,98271.22
2022-10-20T19:33:41.135Z,98278.97
2022-10-20T19:35:45.894Z,98280.59
2022-10-20T19:37:50.697Z,98273.47
2022-10-20T19:39:58.140Z,98274.19
2022-10-20T19:42:04.644Z,98267.94
2022-10-20T19:44:12.471Z,98273.81
2022-10-20T19:46:19.490Z,98272.91
2022-10-20T19:48:25.235Z,98274.69
2022-10-20T19:50:30.064Z,98269.44
2022-10-20T19:52:35.430Z,98266.06
2022-10-20T19:54:40.495Z,98268.75
2022-10-20T19:56:48.317Z,98261.19
2022-10-20T19:58:53.059Z,98278.59
2022-10-20T20:01:01.712Z,98283.97
2022-10-20T20:03:06.705Z,98289.09
2022-10-20T20:05:11.995Z,98290.88
2022-10-20T20:09:24.243Z,98289.28
2022-10-20T20:11:31.930Z,98289.22
2022-10-20T20:13:39.466Z,98278.97
2022-10-20T20:15:44.219Z,98276.66
2022-10-20T20:17:48.988Z,98277.50
2022-10-20T20:19:53.836Z,98274.94
2022-10-20T20:21:58.658Z,98278.91
2022-10-20T20:24:05.152Z,98285.06
2022-10-20T20:26:13.904Z,98286.84
2022-10-20T20:28:20.866Z,98282.34
2022-10-20T20:30:29.912Z,98291.72
2022-10-20T20:32:37.052Z,98297.72
2022-10-20T20:34:41.983Z,98300.25
2022-10-20T20:36:46.794Z,98303.78
2022-10-20T20:38:53.802Z,98310.75
2022-10-20T20:41:02.163Z,98312.50
2022-10-20T20:43:06.910Z,98305.50
2022-10-20T20:45:13.080Z,98299.69
2022-10-20T20:47:20.684Z,98305.66
2022-10-20T20:49:27.529Z,98304.81
2022-10-20T20:51:33.854Z,98299.75
2022-10-20T20:53:39.970Z,98300.59
2022-10-20T20:55:44.754Z,98294.50
2022-10-20T20:57:50.758Z,98281.13
2022-10-20T20:59:55.623Z,98271.38
2022-10-20T21:02:00.344Z,98266.84
2022-10-20T21:04:11.255Z,98277.13
2022-10-20T21:06:18.360Z,98268.41
2022-10-20T21:08:23.188Z,98273.63
2022-10-20T21:10:27.945Z,98258.22
2022-10-20T21:12:34.666Z,98247.25
2022-10-20T21:14:40.239Z,98246.47
2022-10-20T21:16:45.150Z,98251.88
2022-10-20T21:18:52.489Z,98262.06
2022-10-20T21:20:59.933Z,98266.44
2022-10-20T21:23:04.827Z,98275.34
2022-10-20T21:25:10.173Z,98263.81
2022-10-20T21:27:14.854Z,98265.41
2022-10-20T21:29:20.028Z,98270.66
2022-10-20T21:31:27.769Z,98291.91
2022-10-20T21:33:32.927Z,98284.81
2022-10-20T21:35:37.574Z,98285.63
2022-10-20T21:37:44.967Z,98297.03
2022-10-20T21:39:49.708Z,98304.88
2022-10-20T21:41:54.601Z,98316.19
2022-10-20T21:44:01.075Z,98323.22
2022-10-20T21:46:14.499Z,98313.41
2022-10-20T21:48:19.354Z,98322.09
2022-10-20T21:50:26.596Z,98326.31
2022-10-20T21:52:31.345Z,98320.06
2022-10-20T21:54:38.891Z,98320.91
2022-10-20T21:56:44.922Z,98315.66
2022-10-20T21:58:49.678Z,98316.69
2022-10-20T22:00:56.143Z,98312.28
2022-10-20T22:03:00.871Z,98317.63
2022-10-20T22:05:06.117Z,98300.00
2022-10-20T22:07:11.004Z,98298.09
2022-10-20T22:09:16.625Z,98281.44
2022-10-20T22:11:26.695Z,98283.22
2022-10-20T22:13:31.434Z,98283.38
2022-10-20T22:15:40.736Z,98271.66
2022-10-20T22:17:45.466Z,98260.47
2022-10-20T22:19:50.402Z,98262.59
2022-10-20T22:24:02.473Z,98255.22
2022-10-20T22:26:07.935Z,98251.09
2022-10-20T22:28:15.354Z,98246.88
2022-10-20T22:30:20.143Z,98247.72
2022-10-20T22:32:25.032Z,98243.44
2022-10-20T22:34:30.149Z,98233.72
2022-10-20T22:36:34.926Z,98226.78
2022-10-20T22:38:39.716Z,98239.88
2022-10-20T22:40:44.488Z,98265.03
2022-10-20T22:42:49.233Z,98261.75
2022-10-20T22:44:56.817Z,98260.75
2022-10-20T22:47:01.748Z,98243.91
2022-10-20T22:49:06.557Z,98229.03
2022-10-20T22:51:12.778Z,98224.75
2022-10-20T22:53:17.626Z,98238.50
2022-10-20T22:55:22.352Z,98232.25
2022-10-20T22:57:27.450Z,98240.38
2022-10-20T22:59:32.158Z,98241.22
2022-10-20T23:01:39.539Z,98242.06
2022-10-20T23:03:44.724Z,98237.75
2022-10-20T23:05:49.304Z,98244.09
2022-10-20T23:07:54.106Z,98257.09
2022-10-20T23:09:58.938Z,98257.00
2022-10-20T23:12:03.765Z,98250.09
2022-10-20T23:14:08.543Z,98239.78
2022-10-20T23:16:14.052Z,98245.97
2022-10-20T23:18:21.448Z,98249.69
2022-10-20T23:20:28.845Z,98253.31
2022-10-20T23:22:33.699Z,98259.56
2022-10-20T23:24:39.488Z,98253.59
2022-10-20T23:26:44.255Z,98247.53
2022-10-20T23:28:48.992Z,98235.63
2022-10-20T23:30:53.856Z,98234.03
2022-10-20T23:32:58.568Z,98247.94
2022-10-20T23:35:06.049Z,98239.09
2022-10-20T23:37:10.815Z,98235.53
2022-10-20T23:39:15.613Z,98224.97
2022-10-20T23:41:20.530Z,98218.78
2022-10-20T23:43:27.671Z,98218.88
2022-10-20T23:45:35.488Z,98205.97
2022-10-20T23:47:43.591Z,98220.84
2022-10-20T23:49:48.285Z,98215.53
2022-10-20T23:51:55.623Z,98206.81
2022-10-20T23:54:00.389Z,98206.25
2022-10-20T23:56:05.130Z,98201.38
2022-10-20T23:58:09.873Z,98192.34
